createdAt,value
2018-01-12T00:00:12.643Z,27.33
2018-01-12T00:02:40.250Z,30.40
2018-01-12T00:05:07.782Z,28.77
2018-01-12T00:07:35.400Z,29.20
2018-01-12T00:10:02.938Z,26.80
2018-01-12T00:12:30.485Z,26.50
2018-01-12T00:14:58.043Z,25.17
2018-01-12T00:17:25.582Z,24.10
2018-01-12T00:19:53.163Z,25.20
2018-01-12T00:22:20.702Z,26.47
2018-01-12T00:24:48.242Z,24.87
2018-01-12T00:27:15.850Z,24.53
2018-01-12T00:29:43.446Z,25.70
2018-01-12T00:32:11.116Z,24.57
2018-01-12T00:34:38.711Z,23.43
2018-01-12T00:37:06.310Z,22.37
2018-01-12T00:39:33.962Z,23.90
2018-01-12T00:42:01.551Z,21.57
2018-01-12T00:44:29.215Z,21.27
2018-01-12T00:46:56.799Z,24.30
2018-01-12T00:49:24.379Z,24.60
2018-01-12T00:51:52.023Z,24.00
2018-01-12T00:54:19.655Z,23.40
2018-01-12T00:56:47.287Z,24.73
2018-01-12T00:59:14.866Z,24.67
2018-01-12T01:01:42.408Z,22.50
2018-01-12T01:04:10.011Z,24.53
2018-01-12T01:06:37.550Z,24.37
2018-01-12T01:09:05.198Z,25.60
2018-01-12T01:11:32.795Z,27.00
2018-01-12T01:14:00.334Z,25.20
2018-01-12T01:16:27.874Z,26.30
2018-01-12T01:18:55.471Z,24.83
2018-01-12T01:21:23.102Z,24.20
2018-01-12T01:23:50.750Z,24.57
2018-01-12T01:26:18.342Z,25.23
2018-01-12T01:28:45.950Z,24.27
2018-01-12T01:31:13.490Z,23.47
2018-01-12T01:33:41.071Z,25.30
2018-01-12T01:36:08.668Z,24.17
2018-01-12T01:38:36.210Z,23.90
2018-01-12T01:41:03.760Z,20.13
2018-01-12T01:43:31.302Z,20.80
2018-01-12T01:45:58.942Z,19.87
2018-01-12T01:48:38.522Z,23.00
2018-01-12T01:51:06.102Z,23.13
2018-01-12T01:53:33.644Z,22.33
2018-01-12T01:56:01.244Z,25.87
2018-01-12T01:58:28.795Z,24.77
2018-01-12T02:00:56.400Z,21.03
2018-01-12T02:03:24.075Z,20.60
2018-01-12T02:05:51.676Z,20.60
2018-01-12T02:08:19.303Z,22.13
2018-01-12T02:10:46.910Z,25.40
2018-01-12T02:13:14.450Z,22.53
2018-01-12T02:15:42.095Z,21.27
2018-01-12T02:18:09.694Z,22.63
2018-01-12T02:20:37.234Z,19.70
2018-01-12T02:23:04.844Z,16.50
2018-01-12T02:25:32.389Z,16.43
2018-01-12T02:27:59.989Z,16.17
2018-01-12T02:30:27.532Z,16.13
2018-01-12T02:32:55.070Z,15.60
2018-01-12T02:35:22.619Z,18.70
2018-01-12T02:37:50.158Z,16.87
2018-01-12T02:40:17.799Z,17.57
2018-01-12T02:42:45.399Z,16.37
2018-01-12T02:45:12.998Z,17.07
2018-01-12T02:47:40.586Z,20.10
2018-01-12T02:50:08.132Z,19.40
2018-01-12T02:52:35.716Z,19.93
2018-01-12T02:55:03.259Z,19.13
2018-01-12T02:57:30.802Z,20.67
2018-01-12T02:59:58.360Z,22.37
2018-01-12T03:02:25.894Z,23.30
2018-01-12T03:04:53.543Z,20.80
2018-01-12T03:07:21.140Z,19.80
2018-01-12T03:09:48.674Z,25.97
2018-01-12T03:12:16.223Z,20.83
2018-01-12T03:14:43.760Z,18.80
2018-01-12T03:17:11.347Z,16.97
2018-01-12T03:19:38.883Z,21.40
2018-01-12T03:22:06.478Z,20.33
2018-01-12T03:24:34.022Z,19.97
2018-01-12T03:27:01.566Z,19.10
2018-01-12T03:29:29.153Z,20.10
2018-01-12T03:31:56.702Z,22.33
2018-01-12T03:34:24.348Z,22.33
2018-01-12T03:36:51.900Z,20.60
2018-01-12T03:39:19.443Z,21.43
2018-01-12T03:41:47.031Z,21.00
2018-01-12T03:44:14.578Z,21.57
2018-01-12T03:46:42.118Z,19.90
2018-01-12T03:49:09.722Z,22.60
2018-01-12T03:51:37.266Z,28.90
2018-01-12T03:54:04.850Z,40.77
2018-01-12T03:56:32.393Z,32.23
2018-01-12T03:58:59.934Z,22.73
2018-01-12T04:01:27.493Z,21.17
2018-01-12T04:03:55.034Z,17.87
2018-01-12T04:06:22.682Z,20.20
2018-01-12T04:08:50.287Z,21.10
2018-01-12T04:11:17.895Z,18.70
2018-01-12T04:13:45.503Z,19.60
2018-01-12T04:16:13.103Z,17.17
2018-01-12T04:18:40.692Z,19.83
2018-01-12T04:21:08.236Z,19.80
2018-01-12T04:23:35.841Z,18.77
2018-01-12T04:26:03.423Z,18.80
2018-01-12T04:28:30.963Z,22.20
2018-01-12T04:30:58.591Z,18.80
2018-01-12T04:33:26.191Z,20.93
2018-01-12T04:35:53.736Z,20.70
2018-01-12T04:38:21.289Z,22.20
2018-01-12T04:40:48.890Z,20.93
2018-01-12T04:43:16.483Z,18.80
2018-01-12T04:45:44.026Z,22.87
2018-01-12T04:48:11.567Z,26.00
2018-01-12T04:50:39.151Z,19.13
2018-01-12T04:53:06.691Z,21.97
2018-01-12T04:55:34.270Z,23.03
2018-01-12T04:58:01.871Z,20.87
2018-01-12T05:00:29.420Z,27.67
2018-01-12T05:02:56.980Z,26.30
2018-01-12T05:05:24.526Z,28.43
2018-01-12T05:07:52.138Z,27.67
2018-01-12T05:10:19.748Z,25.73
2018-01-12T05:12:47.290Z,24.07
2018-01-12T05:15:14.850Z,29.60
2018-01-12T05:17:42.469Z,21.27
2018-01-12T05:20:10.199Z,23.03
2018-01-12T05:22:37.749Z,23.37
2018-01-12T05:25:05.347Z,22.70
2018-01-12T05:27:32.956Z,24.43
2018-01-12T05:30:00.524Z,26.20
2018-01-12T05:32:28.175Z,35.93
2018-01-12T05:34:55.771Z,30.13
2018-01-12T05:37:23.344Z,28.57
2018-01-12T05:39:50.963Z,35.00
2018-01-12T05:42:18.558Z,38.83
2018-01-12T05:44:46.143Z,32.57
2018-01-12T05:47:13.743Z,32.30
2018-01-12T05:49:41.340Z,34.03
2018-01-12T05:52:08.951Z,32.67
2018-01-12T05:54:36.495Z,39.43
2018-01-12T05:57:04.086Z,39.17
2018-01-12T05:59:31.622Z,38.07
2018-01-12T06:02:11.077Z,31.40
2018-01-12T06:07:43.657Z,23.07
2018-01-12T06:10:11.190Z,27.63
2018-01-12T06:12:38.734Z,23.23
2018-01-12T06:15:06.374Z,28.17
2018-01-12T06:17:33.920Z,25.63
2018-01-12T06:20:01.519Z,26.67
2018-01-12T06:22:29.127Z,28.40
2018-01-12T06:24:56.668Z,30.50
2018-01-12T06:27:24.212Z,28.10
2018-01-12T06:29:51.804Z,30.13
2018-01-12T06:32:19.400Z,33.40
2018-01-12T06:34:46.937Z,34.00
2018-01-12T06:37:14.522Z,45.97
2018-01-12T06:39:42.065Z,28.57
2018-01-12T06:42:09.663Z,25.53
2018-01-12T06:44:37.325Z,26.17
2018-01-12T06:47:04.866Z,26.23
2018-01-12T06:49:32.410Z,39.63
2018-01-12T06:51:59.999Z,35.33
2018-01-12T06:54:27.542Z,34.23
2018-01-12T06:56:55.080Z,32.57
2018-01-12T06:59:22.686Z,27.43
2018-01-12T07:01:50.290Z,20.80
2018-01-12T07:04:17.838Z,18.87
2018-01-12T07:06:45.426Z,21.83
2018-01-12T07:09:13.020Z,20.67
2018-01-12T07:11:40.663Z,23.07
2018-01-12T07:14:08.367Z,22.50
2018-01-12T07:16:35.975Z,22.50
2018-01-12T07:19:03.515Z,24.60
2018-01-12T07:21:43.073Z,25.97
2018-01-12T07:24:10.622Z,22.70
2018-01-12T07:26:38.167Z,22.20
2018-01-12T07:29:05.759Z,20.60
2018-01-12T07:31:33.367Z,22.53
2018-01-12T07:34:01.012Z,21.80
2018-01-12T07:36:28.554Z,20.83
2018-01-12T07:38:56.094Z,23.07
2018-01-12T07:41:23.638Z,24.93
2018-01-12T07:43:51.174Z,21.67
2018-01-12T07:46:18.815Z,27.47
2018-01-12T07:48:46.360Z,25.67
2018-01-12T07:51:13.955Z,24.93
2018-01-12T07:53:41.566Z,21.03
2018-01-12T07:56:09.111Z,23.30
2018-01-12T07:58:36.702Z,23.37
2018-01-12T08:01:09.690Z,24.00
2018-01-12T08:03:37.243Z,32.80
2018-01-12T08:06:04.803Z,30.00
2018-01-12T08:08:32.346Z,33.80
2018-01-12T08:10:59.987Z,37.23
2018-01-12T08:13:27.589Z,23.40
2018-01-12T08:15:55.126Z,19.80
2018-01-12T08:18:22.731Z,21.53
2018-01-12T08:20:50.326Z,21.07
2018-01-12T08:23:17.907Z,21.43
2018-01-12T08:25:45.448Z,23.63
2018-01-12T08:28:12.990Z,22.13
2018-01-12T08:30:40.599Z,20.97
2018-01-12T08:33:08.131Z,21.73
2018-01-12T08:35:35.790Z,19.20
2018-01-12T08:38:03.322Z,17.30
2018-01-12T08:40:30.862Z,20.07
2018-01-12T08:42:58.414Z,19.17
2018-01-12T08:45:26.013Z,22.93
2018-01-12T08:47:53.595Z,19.97
2018-01-12T08:50:21.130Z,24.67
2018-01-12T08:52:48.670Z,21.50
2018-01-12T08:55:16.267Z,19.47
2018-01-12T08:57:43.892Z,20.60
2018-01-12T09:00:11.478Z,19.47
2018-01-12T09:02:39.084Z,19.07
2018-01-12T09:05:06.623Z,20.17
2018-01-12T09:07:34.171Z,22.67
2018-01-12T09:10:01.711Z,26.53
2018-01-12T09:12:29.294Z,33.70
2018-01-12T09:14:56.910Z,30.13
2018-01-12T09:17:31.247Z,27.70
2018-01-12T09:20:10.400Z,28.20
2018-01-12T09:22:47.574Z,29.53
2018-01-12T09:25:26.558Z,24.70
2018-01-12T09:27:54.146Z,24.10
2018-01-12T09:30:21.686Z,25.40
2018-01-12T09:32:50.241Z,32.97
2018-01-12T09:35:17.796Z,33.53
2018-01-12T09:37:45.391Z,28.97
2018-01-12T09:43:17.831Z,24.80
2018-01-12T09:45:45.501Z,22.27
2018-01-12T09:48:37.882Z,18.77
2018-01-12T09:51:05.442Z,18.30
2018-01-12T09:53:33.046Z,18.50
2018-01-12T09:56:00.629Z,19.33
2018-01-12T09:58:28.179Z,19.00
2018-01-12T10:00:57.526Z,21.20
2018-01-12T10:03:25.144Z,18.50
2018-01-12T10:05:52.678Z,18.67
2018-01-12T10:08:26.214Z,21.77
2018-01-12T10:10:53.754Z,17.63
2018-01-12T10:13:21.293Z,23.37
2018-01-12T10:15:48.827Z,24.40
2018-01-12T10:21:35.897Z,21.17
2018-01-12T10:24:03.474Z,23.40
2018-01-12T10:26:31.010Z,22.03
2018-01-12T10:29:07.590Z,20.67
2018-01-12T10:31:46.866Z,18.50
2018-01-12T10:37:22.494Z,19.40
2018-01-12T10:40:02.178Z,39.83
2018-01-12T10:42:29.746Z,30.27
2018-01-12T10:44:57.339Z,38.20
2018-01-12T10:47:27.913Z,30.63
2018-01-12T10:53:06.182Z,21.17
2018-01-12T10:55:33.778Z,22.27
2018-01-12T10:58:01.450Z,29.20
2018-01-12T11:00:31.894Z,23.67
2018-01-12T11:02:59.439Z,29.87
2018-01-12T11:05:27.107Z,26.73
2018-01-12T11:07:54.702Z,19.67
2018-01-12T11:10:22.329Z,29.67
2018-01-12T11:12:49.918Z,33.10
2018-01-12T11:15:17.465Z,30.50
2018-01-12T11:17:44.998Z,29.43
2018-01-12T11:20:12.590Z,22.60
2018-01-12T11:22:40.130Z,27.70
2018-01-12T11:25:07.677Z,25.10
2018-01-12T11:27:35.279Z,23.53
2018-01-12T11:30:02.834Z,24.47
2018-01-12T11:32:30.430Z,26.20
2018-01-12T11:34:58.022Z,25.90
2018-01-12T11:37:25.622Z,29.50
2018-01-12T11:39:53.185Z,25.53
2018-01-12T11:42:20.770Z,20.03
2018-01-12T11:44:48.310Z,21.60
2018-01-12T11:47:15.913Z,37.43
2018-01-12T11:49:43.494Z,36.90
2018-01-12T11:52:11.037Z,36.80
2018-01-12T11:54:38.579Z,32.57
2018-01-12T11:57:06.214Z,27.60
2018-01-12T11:59:33.791Z,27.67
2018-01-12T12:02:01.379Z,25.03
2018-01-12T12:04:28.962Z,27.93
2018-01-12T12:06:56.506Z,27.20
2018-01-12T12:09:24.056Z,27.43
2018-01-12T12:11:51.674Z,26.40
2018-01-12T12:14:19.250Z,24.93
2018-01-12T12:16:46.794Z,23.10
2018-01-12T12:19:14.381Z,21.10
2018-01-12T12:21:41.922Z,26.43
2018-01-12T12:24:09.467Z,30.97
2018-01-12T12:26:37.116Z,29.30
2018-01-12T12:29:04.667Z,32.90
2018-01-12T12:31:32.262Z,28.77
2018-01-12T12:33:59.848Z,26.90
2018-01-12T12:36:27.384Z,29.50
2018-01-12T12:38:54.930Z,27.97
2018-01-12T12:41:22.538Z,25.80
2018-01-12T12:43:50.099Z,15.17
2018-01-12T12:46:17.633Z,12.63
2018-01-12T12:48:45.211Z,19.63
2018-01-12T12:51:12.786Z,19.43
2018-01-12T12:53:40.318Z,23.40
2018-01-12T12:56:07.954Z,22.50
2018-01-12T12:58:35.494Z,24.20
2018-01-12T13:01:03.026Z,23.50
2018-01-12T13:03:30.639Z,25.80
2018-01-12T13:05:58.323Z,28.93
2018-01-12T13:08:25.947Z,25.03
2018-01-12T13:10:53.490Z,25.67
2018-01-12T13:13:21.039Z,27.77
2018-01-12T13:15:48.591Z,27.97
2018-01-12T13:18:16.237Z,28.57
2018-01-12T13:20:43.822Z,29.33
2018-01-12T13:23:11.467Z,33.80
2018-01-12T13:25:39.067Z,34.23
2018-01-12T13:28:06.613Z,31.00
2018-01-12T13:30:34.150Z,31.73
2018-01-12T13:33:01.730Z,30.90
2018-01-12T13:35:29.267Z,29.17
2018-01-12T13:37:56.807Z,38.03
2018-01-12T13:40:24.350Z,33.33
2018-01-12T13:42:51.894Z,35.70
2018-01-12T13:45:19.583Z,36.13
2018-01-12T13:47:47.179Z,35.00
2018-01-12T13:50:14.758Z,35.80
2018-01-12T13:52:42.309Z,41.40
2018-01-12T13:55:09.848Z,38.50
2018-01-12T13:57:37.499Z,42.00
2018-01-12T14:00:05.033Z,38.20
2018-01-12T14:02:32.581Z,32.60
2018-01-12T14:05:00.186Z,25.50
2018-01-12T14:07:27.806Z,27.60
2018-01-12T14:09:55.454Z,36.13
2018-01-12T14:12:22.990Z,32.57
2018-01-12T14:14:50.533Z,35.40
2018-01-12T14:17:18.082Z,29.27
2018-01-12T14:19:45.618Z,31.57
2018-01-12T14:22:13.202Z,29.57
2018-01-12T14:24:40.739Z,28.17
2018-01-12T14:27:08.338Z,26.20
2018-01-12T14:29:35.877Z,27.70
2018-01-12T14:32:03.426Z,25.63
2018-01-12T14:34:31.054Z,22.67
2018-01-12T14:36:58.601Z,18.30
2018-01-12T14:39:26.140Z,14.10
2018-01-12T14:41:53.686Z,8.60
2018-01-12T14:44:21.223Z,8.07
2018-01-12T14:46:48.811Z,7.67
2018-01-12T14:49:16.419Z,15.27
2018-01-12T14:51:44.017Z,12.00
2018-01-12T14:54:11.618Z,12.90
2018-01-12T14:56:39.158Z,16.13
2018-01-12T14:59:06.803Z,10.93
2018-01-12T15:01:34.342Z,10.10
2018-01-12T15:04:01.947Z,10.70
2018-01-12T15:06:29.585Z,8.63
2018-01-12T15:08:57.178Z,11.80
2018-01-12T15:11:24.818Z,8.37
2018-01-12T15:13:52.352Z,8.07
2018-01-12T15:16:20.030Z,34.20
2018-01-12T15:18:47.567Z,6.60
2018-01-12T15:21:15.094Z,6.00
2018-01-12T15:23:42.699Z,6.87
2018-01-12T15:26:10.229Z,7.23
2018-01-12T15:28:37.846Z,4.50
2018-01-12T15:31:05.451Z,4.97
2018-01-12T15:33:33.054Z,4.23
2018-01-12T15:36:00.701Z,4.10
2018-01-12T15:38:28.295Z,3.63
2018-01-12T15:40:55.886Z,4.30
2018-01-12T15:43:23.486Z,4.73
2018-01-12T15:45:51.014Z,5.43
2018-01-12T15:48:18.602Z,4.30
2018-01-12T15:50:46.135Z,4.50
2018-01-12T15:53:13.728Z,4.23
2018-01-12T15:55:41.270Z,3.93
2018-01-12T15:58:08.863Z,4.10
2018-01-12T16:00:36.446Z,4.63
2018-01-12T16:03:03.982Z,4.50
2018-01-12T16:05:31.518Z,4.30
2018-01-12T16:07:59.055Z,3.30
2018-01-12T16:10:26.645Z,3.70
2018-01-12T16:12:54.415Z,4.00
2018-01-12T16:15:21.962Z,3.83
2018-01-12T16:17:49.493Z,4.60
2018-01-12T16:20:17.046Z,4.90
2018-01-12T16:22:44.638Z,4.07
2018-01-12T16:25:12.213Z,4.43
2018-01-12T16:27:39.750Z,4.30
2018-01-12T16:30:07.354Z,3.20
2018-01-12T16:32:35.002Z,3.40
2018-01-12T16:35:02.518Z,3.33
2018-01-12T16:37:30.158Z,3.27
2018-01-12T16:39:57.690Z,3.50
2018-01-12T16:42:25.284Z,4.20
2018-01-12T16:44:52.879Z,4.00
2018-01-12T16:47:20.407Z,3.70
2018-01-12T16:49:48.046Z,4.87
2018-01-12T16:52:15.574Z,4.50
2018-01-12T16:54:43.103Z,3.63
2018-01-12T16:57:10.644Z,3.43
2018-01-12T16:59:38.171Z,3.80
2018-01-12T17:02:05.746Z,4.13
2018-01-12T17:04:33.283Z,4.20
2018-01-12T17:07:00.814Z,4.57
2018-01-12T17:09:28.350Z,4.93
2018-01-12T17:11:55.884Z,5.53
2018-01-12T17:14:23.483Z,6.10
2018-01-12T17:16:51.054Z,4.87
2018-01-12T17:19:18.647Z,4.70
2018-01-12T17:21:46.193Z,4.73
2018-01-12T17:24:13.723Z,4.40
2018-01-12T17:26:41.310Z,4.47
2018-01-12T17:29:08.893Z,5.80
2018-01-12T17:31:36.421Z,5.70
2018-01-12T17:34:04.064Z,5.80
2018-01-12T17:36:31.613Z,5.80
2018-01-12T17:38:59.198Z,5.17
2018-01-12T17:41:26.740Z,6.30
2018-01-12T17:43:54.275Z,6.90
2018-01-12T17:46:21.857Z,7.30
2018-01-12T17:48:49.390Z,7.80
2018-01-12T17:51:17.032Z,7.70
2018-01-12T17:53:44.566Z,7.43
2018-01-12T17:56:12.216Z,7.83
2018-01-12T17:58:39.758Z,7.97
2018-01-12T18:01:07.290Z,7.90
2018-01-12T18:03:34.898Z,7.60
2018-01-12T18:06:02.439Z,8.20
2018-01-12T18:08:29.973Z,6.83
2018-01-12T18:10:57.652Z,7.80
2018-01-12T18:13:25.232Z,7.30
2018-01-12T18:15:52.832Z,7.50
2018-01-12T18:18:20.366Z,7.27
2018-01-12T18:20:47.899Z,7.50
2018-01-12T18:23:15.508Z,8.50
2018-01-12T18:25:43.133Z,7.40
2018-01-12T18:28:10.717Z,8.03
2018-01-12T18:30:38.250Z,7.53
2018-01-12T18:33:05.847Z,7.00
2018-01-12T18:35:33.487Z,7.40
2018-01-12T18:38:01.083Z,7.67
2018-01-12T18:40:28.671Z,6.93
2018-01-12T18:42:56.212Z,6.80
2018-01-12T18:45:23.812Z,7.03
2018-01-12T18:47:51.415Z,7.10
2018-01-12T18:50:19.011Z,6.33
2018-01-12T18:52:46.609Z,5.97
2018-01-12T18:55:14.149Z,7.30
2018-01-12T18:57:41.686Z,6.87
2018-01-12T19:00:09.383Z,7.37
2018-01-12T19:02:37.007Z,7.40
2018-01-12T19:05:04.670Z,7.40
2018-01-12T19:07:32.237Z,7.37
2018-01-12T19:09:59.769Z,7.60
2018-01-12T19:12:27.407Z,6.80
2018-01-12T19:14:55.007Z,6.63
2018-01-12T19:17:22.594Z,7.00
2018-01-12T19:19:50.129Z,7.13
2018-01-12T19:22:17.674Z,6.40
2018-01-12T19:24:45.282Z,7.10
2018-01-12T19:27:12.826Z,6.30
2018-01-12T19:29:40.520Z,7.40
2018-01-12T19:32:08.066Z,6.57
2018-01-12T19:34:35.602Z,6.70
2018-01-12T19:37:03.158Z,6.17
2018-01-12T19:39:30.690Z,6.80
2018-01-12T19:41:58.274Z,6.53
2018-01-12T19:44:25.871Z,5.33
2018-01-12T19:46:53.416Z,7.60
2018-01-12T19:49:21.019Z,5.70
2018-01-12T19:51:48.612Z,7.03
2018-01-12T19:54:20.271Z,8.87
2018-01-12T19:56:47.863Z,6.80
2018-01-12T19:59:15.466Z,6.77
2018-01-12T20:01:43.014Z,8.80
2018-01-12T20:04:10.548Z,8.07
2018-01-12T20:06:38.167Z,7.77
2018-01-12T20:09:06.614Z,7.80
2018-01-12T20:11:34.150Z,8.57
2018-01-12T20:14:02.591Z,7.57
2018-01-12T20:16:30.136Z,7.67
2018-01-12T20:18:57.779Z,7.47
2018-01-12T20:21:25.366Z,7.00
2018-01-12T20:23:52.970Z,7.70
2018-01-12T20:26:20.516Z,7.40
2018-01-12T20:28:48.050Z,8.60
2018-01-12T20:31:15.636Z,6.90
2018-01-12T20:33:43.199Z,8.00
2018-01-12T20:36:10.734Z,7.53
2018-01-12T20:38:38.339Z,8.43
2018-01-12T20:41:05.915Z,8.13
2018-01-12T20:43:33.485Z,8.30
2018-01-12T20:46:01.018Z,7.67
2018-01-12T20:48:28.555Z,8.33
2018-01-12T20:50:56.158Z,8.77
2018-01-12T20:53:23.694Z,7.00
2018-01-12T20:55:51.271Z,8.40
2018-01-12T20:58:18.867Z,8.97
2018-01-12T21:00:46.453Z,7.60
2018-01-12T21:03:14.006Z,8.17
2018-01-12T21:05:41.599Z,8.40
2018-01-12T21:08:09.178Z,8.63
2018-01-12T21:10:36.706Z,9.87
2018-01-12T21:13:04.305Z,8.07
2018-01-12T21:15:31.865Z,8.80
2018-01-12T21:17:59.402Z,9.07
2018-01-12T21:20:27.059Z,9.77
2018-01-12T21:22:54.652Z,8.50
2018-01-12T21:25:22.255Z,9.00
2018-01-12T21:27:49.798Z,8.87
2018-01-12T21:30:17.327Z,9.10
2018-01-12T21:32:44.969Z,9.57
2018-01-12T21:35:12.498Z,9.77
2018-01-12T21:37:44.360Z,8.80
2018-01-12T21:40:11.910Z,8.70
2018-01-12T21:42:39.442Z,9.53
2018-01-12T21:45:07.018Z,8.70
2018-01-12T21:47:34.647Z,8.47
2018-01-12T21:50:02.262Z,8.80
2018-01-12T21:52:29.841Z,8.50
2018-01-12T21:54:57.480Z,8.67
2018-01-12T21:57:25.009Z,9.17
2018-01-12T21:59:52.651Z,8.20
2018-01-12T22:02:20.188Z,8.60
2018-01-12T22:04:47.778Z,8.27
2018-01-12T22:07:15.415Z,8.53
2018-01-12T22:09:43.014Z,7.63
2018-01-12T22:12:10.611Z,8.17
2018-01-12T22:14:38.191Z,7.63
2018-01-12T22:17:05.781Z,7.67
2018-01-12T22:19:33.309Z,7.37
2018-01-12T22:22:00.898Z,6.80
2018-01-12T22:24:28.425Z,7.67
2018-01-12T22:26:55.959Z,6.53
2018-01-12T22:29:23.597Z,6.50
2018-01-12T22:31:51.126Z,6.63
2018-01-12T22:34:18.723Z,5.87
2018-01-12T22:36:46.291Z,5.90
2018-01-12T22:39:13.885Z,5.60
2018-01-12T22:41:41.414Z,6.07
2018-01-12T22:44:09.054Z,5.47
2018-01-12T22:46:36.586Z,6.87
2018-01-12T22:49:04.207Z,6.57
2018-01-12T22:51:31.785Z,5.80
2018-01-12T22:53:59.378Z,5.30
2018-01-12T22:56:26.910Z,6.30
2018-01-12T22:58:54.488Z,6.27
2018-01-12T23:01:22.018Z,6.13
2018-01-12T23:03:49.603Z,6.33
2018-01-12T23:06:17.186Z,6.10
2018-01-12T23:08:44.718Z,6.17
2018-01-12T23:11:12.261Z,7.17
2018-01-12T23:13:39.838Z,6.50
2018-01-12T23:16:07.366Z,5.80
2018-01-12T23:18:34.897Z,6.73
2018-01-12T23:21:02.474Z,6.70
2018-01-12T23:23:30.015Z,6.37
2018-01-12T23:25:57.608Z,5.33
2018-01-12T23:28:25.186Z,5.80
2018-01-12T23:30:52.716Z,6.33
2018-01-12T23:33:20.250Z,6.27
2018-01-12T23:35:47.829Z,6.00
2018-01-12T23:38:15.366Z,5.73
2018-01-12T23:40:42.894Z,5.80
2018-01-12T23:43:10.530Z,6.57
2018-01-12T23:45:38.059Z,6.10
2018-01-12T23:48:05.686Z,6.80
2018-01-12T23:50:33.258Z,5.90
2018-01-12T23:53:00.790Z,6.77
2018-01-12T23:55:28.329Z,6.60
2018-01-12T23:57:55.913Z,6.37
